sensor_id;sensor_type;location;lat;lon;timestamp;temperature;humidity
16781;DHT22;8507;50.056;8.248;2022-11-20T00:00:46;3.10;99.90
16781;DHT22;8507;50.056;8.248;2022-11-20T00:03:12;3.10;99.90
16781;DHT22;8507;50.056;8.248;2022-11-20T00:05:38;3.10;99.90
16781;DHT22;8507;50.056;8.248;2022-11-20T00:08:04;3.00;99.90
16781;DHT22;8507;50.056;8.248;2022-11-20T00:10:30;3.00;99.90
16781;DHT22;8507;50.056;8.248;2022-11-20T00:12:58;3.00;99.90
16781;DHT22;8507;50.056;8.248;2022-11-20T00:15:23;3.30;99.90
16781;DHT22;8507;50.056;8.248;2022-11-20T00:17:49;3.10;99.90
16781;DHT22;8507;50.056;8.248;2022-11-20T00:20:17;3.00;99.90
16781;DHT22;8507;50.056;8.248;2022-11-20T00:22:42;3.10;99.90
16781;DHT22;8507;50.056;8.248;2022-11-20T00:25:08;3.10;99.90
16781;DHT22;8507;50.056;8.248;2022-11-20T00:27:34;3.20;99.90
16781;DHT22;8507;50.056;8.248;2022-11-20T00:29:59;3.30;99.90
16781;DHT22;8507;50.056;8.248;2022-11-20T00:32:25;3.30;99.90
16781;DHT22;8507;50.056;8.248;2022-11-20T00:34:50;3.30;99.90
16781;DHT22;8507;50.056;8.248;2022-11-20T00:37:16;3.30;99.90
16781;DHT22;8507;50.056;8.248;2022-11-20T00:39:41;3.50;99.90
16781;DHT22;8507;50.056;8.248;2022-11-20T00:42:07;3.70;99.90
16781;DHT22;8507;50.056;8.248;2022-11-20T00:44:32;3.70;99.90
16781;DHT22;8507;50.056;8.248;2022-11-20T00:46:58;3.50;99.90
16781;DHT22;8507;50.056;8.248;2022-11-20T00:49:23;3.30;99.90
16781;DHT22;8507;50.056;8.248;2022-11-20T00:51:49;3.10;99.90
16781;DHT22;8507;50.056;8.248;2022-11-20T00:54:14;3.10;99.90
16781;DHT22;8507;50.056;8.248;2022-11-20T00:56:40;2.90;99.90
16781;DHT22;8507;50.056;8.248;2022-11-20T00:59:06;2.80;99.90
16781;DHT22;8507;50.056;8.248;2022-11-20T01:01:31;2.90;99.90
16781;DHT22;8507;50.056;8.248;2022-11-20T01:03:59;2.90;99.90
16781;DHT22;8507;50.056;8.248;2022-11-20T01:06:28;2.90;99.90
16781;DHT22;8507;50.056;8.248;2022-11-20T01:08:56;2.90;99.90
16781;DHT22;8507;50.056;8.248;2022-11-20T01:11:33;2.90;99.90
16781;DHT22;8507;50.056;8.248;2022-11-20T01:14:01;2.90;99.90
16781;DHT22;8507;50.056;8.248;2022-11-20T01:16:36;3.10;99.90
16781;DHT22;8507;50.056;8.248;2022-11-20T01:19:04;3.30;99.90
16781;DHT22;8507;50.056;8.248;2022-11-20T01:21:33;3.50;99.90
16781;DHT22;8507;50.056;8.248;2022-11-20T01:23:59;3.60;99.90
16781;DHT22;8507;50.056;8.248;2022-11-20T01:26:27;3.50;99.90
16781;DHT22;8507;50.056;8.248;2022-11-20T01:28:54;3.50;99.90
16781;DHT22;8507;50.056;8.248;2022-11-20T01:31:21;3.50;99.90
16781;DHT22;8507;50.056;8.248;2022-11-20T01:33:49;3.60;99.90
16781;DHT22;8507;50.056;8.248;2022-11-20T01:36:16;3.80;99.90
16781;DHT22;8507;50.056;8.248;2022-11-20T01:38:42;3.80;99.90
16781;DHT22;8507;50.056;8.248;2022-11-20T01:41:09;3.70;99.90
16781;DHT22;8507;50.056;8.248;2022-11-20T01:43:35;3.60;99.90
16781;DHT22;8507;50.056;8.248;2022-11-20T01:46:16;3.60;99.90
16781;DHT22;8507;50.056;8.248;2022-11-20T01:48:58;3.30;99.90
16781;DHT22;8507;50.056;8.248;2022-11-20T01:53:57;3.40;99.90
16781;DHT22;8507;50.056;8.248;2022-11-20T01:56:26;3.40;99.90
16781;DHT22;8507;50.056;8.248;2022-11-20T01:58:57;3.40;99.90
16781;DHT22;8507;50.056;8.248;2022-11-20T02:01:23;3.50;99.90
16781;DHT22;8507;50.056;8.248;2022-11-20T02:03:50;3.50;99.90
16781;DHT22;8507;50.056;8.248;2022-11-20T02:08:44;3.20;99.90
16781;DHT22;8507;50.056;8.248;2022-11-20T02:11:10;3.00;99.90
16781;DHT22;8507;50.056;8.248;2022-11-20T02:13:35;3.00;99.90
16781;DHT22;8507;50.056;8.248;2022-11-20T02:16:18;3.20;99.90
16781;DHT22;8507;50.056;8.248;2022-11-20T02:18:45;3.20;99.90
16781;DHT22;8507;50.056;8.248;2022-11-20T02:24:02;3.70;99.90
16781;DHT22;8507;50.056;8.248;2022-11-20T02:26:31;3.70;99.90
16781;DHT22;8507;50.056;8.248;2022-11-20T02:28:58;3.40;99.90
16781;DHT22;8507;50.056;8.248;2022-11-20T02:31:24;3.40;99.90
16781;DHT22;8507;50.056;8.248;2022-11-20T02:33:57;3.30;99.90
16781;DHT22;8507;50.056;8.248;2022-11-20T02:36:26;3.20;99.90
16781;DHT22;8507;50.056;8.248;2022-11-20T02:38:52;3.40;99.90
16781;DHT22;8507;50.056;8.248;2022-11-20T02:41:17;3.20;99.90
16781;DHT22;8507;50.056;8.248;2022-11-20T02:43:43;3.20;99.90
16781;DHT22;8507;50.056;8.248;2022-11-20T02:46:09;3.10;99.90
16781;DHT22;8507;50.056;8.248;2022-11-20T02:48:34;3.10;99.90
16781;DHT22;8507;50.056;8.248;2022-11-20T02:51:00;3.10;99.90
16781;DHT22;8507;50.056;8.248;2022-11-20T02:53:26;3.20;99.90
16781;DHT22;8507;50.056;8.248;2022-11-20T02:55:51;3.40;99.90
16781;DHT22;8507;50.056;8.248;2022-11-20T02:58:17;3.50;99.90
16781;DHT22;8507;50.056;8.248;2022-11-20T03:00:42;3.70;99.90
16781;DHT22;8507;50.056;8.248;2022-11-20T03:03:08;3.70;99.90
16781;DHT22;8507;50.056;8.248;2022-11-20T03:05:33;3.90;99.90
16781;DHT22;8507;50.056;8.248;2022-11-20T03:07:59;4.10;99.90
16781;DHT22;8507;50.056;8.248;2022-11-20T03:10:24;4.20;99.90
16781;DHT22;8507;50.056;8.248;2022-11-20T03:12:56;4.30;99.90
16781;DHT22;8507;50.056;8.248;2022-11-20T03:15:23;4.30;99.90
16781;DHT22;8507;50.056;8.248;2022-11-20T03:17:48;4.20;99.90
16781;DHT22;8507;50.056;8.248;2022-11-20T03:20:14;4.30;99.90
16781;DHT22;8507;50.056;8.248;2022-11-20T03:22:40;3.80;99.90
16781;DHT22;8507;50.056;8.248;2022-11-20T03:25:05;3.50;99.90
16781;DHT22;8507;50.056;8.248;2022-11-20T03:27:33;3.30;99.90
16781;DHT22;8507;50.056;8.248;2022-11-20T03:29:59;3.40;99.90
16781;DHT22;8507;50.056;8.248;2022-11-20T03:32:24;3.50;99.90
16781;DHT22;8507;50.056;8.248;2022-11-20T03:34:50;3.40;99.90
16781;DHT22;8507;50.056;8.248;2022-11-20T03:37:15;3.60;99.90
16781;DHT22;8507;50.056;8.248;2022-11-20T03:39:41;3.80;99.90
16781;DHT22;8507;50.056;8.248;2022-11-20T03:42:06;3.90;99.90
16781;DHT22;8507;50.056;8.248;2022-11-20T03:44:53;3.80;99.90
16781;DHT22;8507;50.056;8.248;2022-11-20T03:47:18;4.00;99.90
16781;DHT22;8507;50.056;8.248;2022-11-20T03:49:44;3.80;99.90
16781;DHT22;8507;50.056;8.248;2022-11-20T03:52:09;3.50;99.90
16781;DHT22;8507;50.056;8.248;2022-11-20T03:54:35;3.40;99.90
16781;DHT22;8507;50.056;8.248;2022-11-20T03:57:00;3.40;99.90
16781;DHT22;8507;50.056;8.248;2022-11-20T03:59:26;3.40;99.90
16781;DHT22;8507;50.056;8.248;2022-11-20T04:01:51;3.40;99.90
16781;DHT22;8507;50.056;8.248;2022-11-20T04:04:17;3.70;99.90
16781;DHT22;8507;50.056;8.248;2022-11-20T04:06:42;3.80;99.90
16781;DHT22;8507;50.056;8.248;2022-11-20T04:09:08;3.90;99.90
16781;DHT22;8507;50.056;8.248;2022-11-20T04:11:36;4.00;99.90
16781;DHT22;8507;50.056;8.248;2022-11-20T04:14:04;4.10;99.90
16781;DHT22;8507;50.056;8.248;2022-11-20T04:16:32;4.20;99.90
16781;DHT22;8507;50.056;8.248;2022-11-20T04:18:59;3.90;99.90
16781;DHT22;8507;50.056;8.248;2022-11-20T04:21:26;3.70;99.90
16781;DHT22;8507;50.056;8.248;2022-11-20T04:23:52;3.60;99.90
16781;DHT22;8507;50.056;8.248;2022-11-20T04:26:19;3.50;99.90
16781;DHT22;8507;50.056;8.248;2022-11-20T04:28:44;3.40;99.90
16781;DHT22;8507;50.056;8.248;2022-11-20T04:31:16;3.60;99.90
16781;DHT22;8507;50.056;8.248;2022-11-20T04:33:42;3.80;99.90
16781;DHT22;8507;50.056;8.248;2022-11-20T04:36:12;4.00;99.90
16781;DHT22;8507;50.056;8.248;2022-11-20T04:38:38;4.10;99.90
16781;DHT22;8507;50.056;8.248;2022-11-20T04:41:06;4.20;99.90
16781;DHT22;8507;50.056;8.248;2022-11-20T04:43:32;4.30;99.90
16781;DHT22;8507;50.056;8.248;2022-11-20T04:45:58;4.40;99.90
16781;DHT22;8507;50.056;8.248;2022-11-20T04:48:25;4.40;99.90
16781;DHT22;8507;50.056;8.248;2022-11-20T04:50:52;4.40;99.90
16781;DHT22;8507;50.056;8.248;2022-11-20T04:53:18;4.50;99.90
16781;DHT22;8507;50.056;8.248;2022-11-20T04:55:44;4.50;99.90
16781;DHT22;8507;50.056;8.248;2022-11-20T04:58:11;4.30;99.90
16781;DHT22;8507;50.056;8.248;2022-11-20T05:00:37;4.40;99.90
16781;DHT22;8507;50.056;8.248;2022-11-20T05:03:02;4.50;99.90
16781;DHT22;8507;50.056;8.248;2022-11-20T05:05:28;4.20;99.90
16781;DHT22;8507;50.056;8.248;2022-11-20T05:07:59;3.70;99.90
16781;DHT22;8507;50.056;8.248;2022-11-20T05:10:25;3.40;99.90
16781;DHT22;8507;50.056;8.248;2022-11-20T05:12:51;3.50;99.90
16781;DHT22;8507;50.056;8.248;2022-11-20T05:15:17;3.70;99.90
16781;DHT22;8507;50.056;8.248;2022-11-20T05:17:47;3.80;99.90
16781;DHT22;8507;50.056;8.248;2022-11-20T05:20:13;4.00;99.90
16781;DHT22;8507;50.056;8.248;2022-11-20T05:22:39;4.10;99.90
16781;DHT22;8507;50.056;8.248;2022-11-20T05:25:04;4.20;99.90
16781;DHT22;8507;50.056;8.248;2022-11-20T05:27:30;4.30;99.90
16781;DHT22;8507;50.056;8.248;2022-11-20T05:29:55;4.40;99.90
16781;DHT22;8507;50.056;8.248;2022-11-20T05:32:21;4.10;99.90
16781;DHT22;8507;50.056;8.248;2022-11-20T05:34:51;3.90;99.90
16781;DHT22;8507;50.056;8.248;2022-11-20T05:37:16;4.10;99.90
16781;DHT22;8507;50.056;8.248;2022-11-20T05:39:42;4.10;99.90
16781;DHT22;8507;50.056;8.248;2022-11-20T05:42:07;4.20;99.90
16781;DHT22;8507;50.056;8.248;2022-11-20T05:44:51;4.30;99.90
16781;DHT22;8507;50.056;8.248;2022-11-20T05:47:17;4.30;99.90
16781;DHT22;8507;50.056;8.248;2022-11-20T05:49:42;4.50;99.90
16781;DHT22;8507;50.056;8.248;2022-11-20T05:52:08;4.40;99.90
16781;DHT22;8507;50.056;8.248;2022-11-20T05:54:33;4.50;99.90
16781;DHT22;8507;50.056;8.248;2022-11-20T05:56:59;4.50;99.90
16781;DHT22;8507;50.056;8.248;2022-11-20T05:59:25;4.40;99.90
16781;DHT22;8507;50.056;8.248;2022-11-20T06:01:50;4.10;99.90
16781;DHT22;8507;50.056;8.248;2022-11-20T06:04:16;4.20;99.90
16781;DHT22;8507;50.056;8.248;2022-11-20T06:06:41;4.30;99.90
16781;DHT22;8507;50.056;8.248;2022-11-20T06:09:07;4.40;99.90
16781;DHT22;8507;50.056;8.248;2022-11-20T06:11:33;4.40;99.90
16781;DHT22;8507;50.056;8.248;2022-11-20T06:13:58;4.50;99.90
16781;DHT22;8507;50.056;8.248;2022-11-20T06:16:24;3.80;99.90
16781;DHT22;8507;50.056;8.248;2022-11-20T06:18:49;3.70;99.90
16781;DHT22;8507;50.056;8.248;2022-11-20T06:21:17;3.50;99.90
16781;DHT22;8507;50.056;8.248;2022-11-20T06:23:44;3.30;99.90
16781;DHT22;8507;50.056;8.248;2022-11-20T06:26:21;3.30;99.90
16781;DHT22;8507;50.056;8.248;2022-11-20T06:28:47;3.10;99.90
16781;DHT22;8507;50.056;8.248;2022-11-20T06:31:14;3.20;99.90
16781;DHT22;8507;50.056;8.248;2022-11-20T06:33:41;3.30;99.90
16781;DHT22;8507;50.056;8.248;2022-11-20T06:36:07;3.30;99.90
16781;DHT22;8507;50.056;8.248;2022-11-20T06:38:32;3.30;99.90
16781;DHT22;8507;50.056;8.248;2022-11-20T06:40:58;3.40;99.90
16781;DHT22;8507;50.056;8.248;2022-11-20T06:43:24;3.70;99.90
16781;DHT22;8507;50.056;8.248;2022-11-20T06:45:54;3.90;99.90
16781;DHT22;8507;50.056;8.248;2022-11-20T06:48:20;3.90;99.90
16781;DHT22;8507;50.056;8.248;2022-11-20T06:50:46;3.80;99.90
16781;DHT22;8507;50.056;8.248;2022-11-20T06:53:11;3.90;99.90
16781;DHT22;8507;50.056;8.248;2022-11-20T06:55:37;4.10;99.90
16781;DHT22;8507;50.056;8.248;2022-11-20T06:58:02;4.20;99.90
16781;DHT22;8507;50.056;8.248;2022-11-20T07:00:28;4.30;99.90
16781;DHT22;8507;50.056;8.248;2022-11-20T07:02:53;4.50;99.90
16781;DHT22;8507;50.056;8.248;2022-11-20T07:05:19;4.20;99.90
16781;DHT22;8507;50.056;8.248;2022-11-20T07:07:44;4.10;99.90
16781;DHT22;8507;50.056;8.248;2022-11-20T07:10:10;4.20;99.90
16781;DHT22;8507;50.056;8.248;2022-11-20T07:12:36;4.40;99.90
16781;DHT22;8507;50.056;8.248;2022-11-20T07:15:02;4.50;99.90
16781;DHT22;8507;50.056;8.248;2022-11-20T07:17:28;4.50;99.90
16781;DHT22;8507;50.056;8.248;2022-11-20T07:19:54;4.50;99.90
16781;DHT22;8507;50.056;8.248;2022-11-20T07:22:19;4.60;99.90
16781;DHT22;8507;50.056;8.248;2022-11-20T07:24:47;4.70;99.90
16781;DHT22;8507;50.056;8.248;2022-11-20T07:27:12;4.80;99.90
16781;DHT22;8507;50.056;8.248;2022-11-20T07:29:38;4.90;99.90
16781;DHT22;8507;50.056;8.248;2022-11-20T07:32:04;4.90;99.90
16781;DHT22;8507;50.056;8.248;2022-11-20T07:34:29;4.90;99.90
16781;DHT22;8507;50.056;8.248;2022-11-20T07:36:55;5.00;99.90
16781;DHT22;8507;50.056;8.248;2022-11-20T07:39:20;5.10;99.90
16781;DHT22;8507;50.056;8.248;2022-11-20T07:41:46;5.20;99.90
16781;DHT22;8507;50.056;8.248;2022-11-20T07:44:11;5.30;99.90
16781;DHT22;8507;50.056;8.248;2022-11-20T07:46:37;5.30;99.90
16781;DHT22;8507;50.056;8.248;2022-11-20T07:49:03;5.40;99.90
16781;DHT22;8507;50.056;8.248;2022-11-20T07:51:28;5.40;99.90
16781;DHT22;8507;50.056;8.248;2022-11-20T07:53:54;5.50;99.90
16781;DHT22;8507;50.056;8.248;2022-11-20T07:56:20;5.60;99.90
16781;DHT22;8507;50.056;8.248;2022-11-20T07:58:45;5.60;99.90
16781;DHT22;8507;50.056;8.248;2022-11-20T08:01:11;5.50;99.90
16781;DHT22;8507;50.056;8.248;2022-11-20T08:03:36;5.50;99.90
16781;DHT22;8507;50.056;8.248;2022-11-20T08:06:05;5.50;99.90
16781;DHT22;8507;50.056;8.248;2022-11-20T08:08:31;5.60;99.90
16781;DHT22;8507;50.056;8.248;2022-11-20T08:10:57;5.70;99.90
16781;DHT22;8507;50.056;8.248;2022-11-20T08:13:42;5.70;99.90
16781;DHT22;8507;50.056;8.248;2022-11-20T08:16:26;5.70;99.90
16781;DHT22;8507;50.056;8.248;2022-11-20T08:18:51;5.80;99.90
16781;DHT22;8507;50.056;8.248;2022-11-20T08:21:17;5.80;99.90
16781;DHT22;8507;50.056;8.248;2022-11-20T08:23:42;5.90;99.90
16781;DHT22;8507;50.056;8.248;2022-11-20T08:26:08;5.90;99.90
16781;DHT22;8507;50.056;8.248;2022-11-20T08:28:33;6.00;99.90
16781;DHT22;8507;50.056;8.248;2022-11-20T08:31:00;6.10;99.90
16781;DHT22;8507;50.056;8.248;2022-11-20T08:33:26;6.10;99.90
16781;DHT22;8507;50.056;8.248;2022-11-20T08:35:51;6.20;99.90
16781;DHT22;8507;50.056;8.248;2022-11-20T08:38:17;6.20;99.90
16781;DHT22;8507;50.056;8.248;2022-11-20T08:40:42;6.30;99.90
16781;DHT22;8507;50.056;8.248;2022-11-20T08:43:28;6.20;99.90
16781;DHT22;8507;50.056;8.248;2022-11-20T08:45:56;6.10;99.90
16781;DHT22;8507;50.056;8.248;2022-11-20T08:48:22;6.10;99.90
16781;DHT22;8507;50.056;8.248;2022-11-20T08:50:47;6.10;99.90
16781;DHT22;8507;50.056;8.248;2022-11-20T08:53:13;6.10;99.90
16781;DHT22;8507;50.056;8.248;2022-11-20T08:55:38;6.10;99.90
16781;DHT22;8507;50.056;8.248;2022-11-20T08:58:05;6.00;99.90
16781;DHT22;8507;50.056;8.248;2022-11-20T09:00:31;6.00;99.90
16781;DHT22;8507;50.056;8.248;2022-11-20T09:02:57;6.00;99.90
16781;DHT22;8507;50.056;8.248;2022-11-20T09:05:24;6.10;99.90
16781;DHT22;8507;50.056;8.248;2022-11-20T09:07:49;6.20;99.90
16781;DHT22;8507;50.056;8.248;2022-11-20T09:10:15;6.30;99.90
16781;DHT22;8507;50.056;8.248;2022-11-20T09:12:41;6.20;99.90
16781;DHT22;8507;50.056;8.248;2022-11-20T09:15:07;6.30;99.90
16781;DHT22;8507;50.056;8.248;2022-11-20T09:17:32;6.30;99.90
16781;DHT22;8507;50.056;8.248;2022-11-20T09:19:58;6.50;99.90
16781;DHT22;8507;50.056;8.248;2022-11-20T09:22:24;6.50;99.90
16781;DHT22;8507;50.056;8.248;2022-11-20T09:24:49;6.50;99.90
16781;DHT22;8507;50.056;8.248;2022-11-20T09:27:15;6.40;99.90
16781;DHT22;8507;50.056;8.248;2022-11-20T09:29:45;6.40;99.90
16781;DHT22;8507;50.056;8.248;2022-11-20T09:32:11;6.40;99.90
16781;DHT22;8507;50.056;8.248;2022-11-20T09:34:36;6.30;99.90
16781;DHT22;8507;50.056;8.248;2022-11-20T09:37:02;6.30;99.90
16781;DHT22;8507;50.056;8.248;2022-11-20T09:39:27;6.30;99.90
16781;DHT22;8507;50.056;8.248;2022-11-20T09:45:37;6.40;99.90
16781;DHT22;8507;50.056;8.248;2022-11-20T09:48:18;6.40;99.90
16781;DHT22;8507;50.056;8.248;2022-11-20T09:54:16;6.40;99.90
16781;DHT22;8507;50.056;8.248;2022-11-20T09:56:53;6.50;99.90
16781;DHT22;8507;50.056;8.248;2022-11-20T09:59:28;6.40;99.90
16781;DHT22;8507;50.056;8.248;2022-11-20T10:01:56;6.40;99.90
16781;DHT22;8507;50.056;8.248;2022-11-20T10:04:24;6.40;99.90
16781;DHT22;8507;50.056;8.248;2022-11-20T10:09:23;6.30;99.90
16781;DHT22;8507;50.056;8.248;2022-11-20T10:12:05;6.40;99.90
16781;DHT22;8507;50.056;8.248;2022-11-20T10:17:21;6.40;99.90
16781;DHT22;8507;50.056;8.248;2022-11-20T10:20:12;6.40;99.90
16781;DHT22;8507;50.056;8.248;2022-11-20T10:22:47;6.40;99.90
16781;DHT22;8507;50.056;8.248;2022-11-20T10:25:19;6.40;99.90
16781;DHT22;8507;50.056;8.248;2022-11-20T10:28:25;6.40;99.90
16781;DHT22;8507;50.056;8.248;2022-11-20T10:31:27;6.30;99.90
16781;DHT22;8507;50.056;8.248;2022-11-20T10:33:54;6.40;99.90
16781;DHT22;8507;50.056;8.248;2022-11-20T10:36:32;6.40;99.90
16781;DHT22;8507;50.056;8.248;2022-11-20T10:39:00;6.40;99.90
16781;DHT22;8507;50.056;8.248;2022-11-20T10:41:40;6.50;99.90
16781;DHT22;8507;50.056;8.248;2022-11-20T10:44:17;6.50;99.90
16781;DHT22;8507;50.056;8.248;2022-11-20T10:47:04;6.60;99.90
16781;DHT22;8507;50.056;8.248;2022-11-20T10:49:32;6.60;99.90
16781;DHT22;8507;50.056;8.248;2022-11-20T10:55:20;6.60;99.90
16781;DHT22;8507;50.056;8.248;2022-11-20T11:00:24;6.60;99.90
16781;DHT22;8507;50.056;8.248;2022-11-20T11:02:54;6.70;99.90
16781;DHT22;8507;50.056;8.248;2022-11-20T11:05:40;6.80;99.90
16781;DHT22;8507;50.056;8.248;2022-11-20T11:08:15;6.80;99.90
16781;DHT22;8507;50.056;8.248;2022-11-20T11:10:53;6.80;99.90
16781;DHT22;8507;50.056;8.248;2022-11-20T11:13:26;6.90;99.90
16781;DHT22;8507;50.056;8.248;2022-11-20T11:15:53;6.90;99.90
16781;DHT22;8507;50.056;8.248;2022-11-20T11:18:26;7.00;99.90
16781;DHT22;8507;50.056;8.248;2022-11-20T11:20:54;6.90;99.90
16781;DHT22;8507;50.056;8.248;2022-11-20T11:23:40;7.10;99.90
16781;DHT22;8507;50.056;8.248;2022-11-20T11:26:23;7.30;99.90
16781;DHT22;8507;50.056;8.248;2022-11-20T11:28:57;7.40;99.90
16781;DHT22;8507;50.056;8.248;2022-11-20T11:31:31;7.70;99.90
16781;DHT22;8507;50.056;8.248;2022-11-20T11:34:24;8.00;99.90
16781;DHT22;8507;50.056;8.248;2022-11-20T11:36:55;8.10;99.90
16781;DHT22;8507;50.056;8.248;2022-11-20T11:39:21;8.00;99.90
16781;DHT22;8507;50.056;8.248;2022-11-20T11:41:47;8.00;99.90
16781;DHT22;8507;50.056;8.248;2022-11-20T11:44:20;7.70;99.90
16781;DHT22;8507;50.056;8.248;2022-11-20T11:47:24;7.80;99.90
16781;DHT22;8507;50.056;8.248;2022-11-20T12:04:45;8.80;99.90
16781;DHT22;8507;50.056;8.248;2022-11-20T12:09:57;8.40;99.90
16781;DHT22;8507;50.056;8.248;2022-11-20T12:12:27;8.30;99.90
16781;DHT22;8507;50.056;8.248;2022-11-20T12:14:56;8.00;99.90
16781;DHT22;8507;50.056;8.248;2022-11-20T12:17:22;7.90;99.90
16781;DHT22;8507;50.056;8.248;2022-11-20T12:19:48;7.90;99.90
16781;DHT22;8507;50.056;8.248;2022-11-20T12:22:43;7.80;99.90
16781;DHT22;8507;50.056;8.248;2022-11-20T12:25:24;7.70;99.90
16781;DHT22;8507;50.056;8.248;2022-11-20T12:30:25;7.70;99.90
16781;DHT22;8507;50.056;8.248;2022-11-20T12:38:45;7.70;99.90
16781;DHT22;8507;50.056;8.248;2022-11-20T12:44:32;7.80;99.90
16781;DHT22;8507;50.056;8.248;2022-11-20T12:50:14;7.80;99.90
16781;DHT22;8507;50.056;8.248;2022-11-20T12:55:47;7.80;99.90
16781;DHT22;8507;50.056;8.248;2022-11-20T12:58:27;7.80;99.90
16781;DHT22;8507;50.056;8.248;2022-11-20T13:06:56;7.40;99.90
16781;DHT22;8507;50.056;8.248;2022-11-20T13:09:23;7.20;99.90
16781;DHT22;8507;50.056;8.248;2022-11-20T13:12:05;7.20;99.90
16781;DHT22;8507;50.056;8.248;2022-11-20T13:14:37;7.50;99.90
16781;DHT22;8507;50.056;8.248;2022-11-20T13:17:20;7.70;99.90
16781;DHT22;8507;50.056;8.248;2022-11-20T13:19:55;7.80;99.90
16781;DHT22;8507;50.056;8.248;2022-11-20T13:22:47;7.90;99.90
16781;DHT22;8507;50.056;8.248;2022-11-20T13:27:52;7.70;99.90
16781;DHT22;8507;50.056;8.248;2022-11-20T13:30:25;7.70;99.90
16781;DHT22;8507;50.056;8.248;2022-11-20T13:32:57;7.40;99.90
16781;DHT22;8507;50.056;8.248;2022-11-20T13:35:31;7.30;99.90
16781;DHT22;8507;50.056;8.248;2022-11-20T13:38:11;6.70;99.90
16781;DHT22;8507;50.056;8.248;2022-11-20T13:40:50;6.80;99.90
16781;DHT22;8507;50.056;8.248;2022-11-20T13:43:36;6.90;99.90
16781;DHT22;8507;50.056;8.248;2022-11-20T13:46:08;6.70;99.90
16781;DHT22;8507;50.056;8.248;2022-11-20T13:48:39;6.70;99.90
16781;DHT22;8507;50.056;8.248;2022-11-20T13:57:08;6.50;99.90
16781;DHT22;8507;50.056;8.248;2022-11-20T14:02:26;6.60;99.90
16781;DHT22;8507;50.056;8.248;2022-11-20T14:04:54;6.70;99.90
16781;DHT22;8507;50.056;8.248;2022-11-20T14:07:25;6.90;99.90
16781;DHT22;8507;50.056;8.248;2022-11-20T14:09:54;7.10;99.90
16781;DHT22;8507;50.056;8.248;2022-11-20T14:12:22;6.40;99.90
16781;DHT22;8507;50.056;8.248;2022-11-20T14:14:50;6.20;99.90
16781;DHT22;8507;50.056;8.248;2022-11-20T14:17:32;6.50;99.90
16781;DHT22;8507;50.056;8.248;2022-11-20T14:20:02;6.60;99.90
16781;DHT22;8507;50.056;8.248;2022-11-20T14:22:28;6.80;99.90
16781;DHT22;8507;50.056;8.248;2022-11-20T14:27:28;6.80;99.90
16781;DHT22;8507;50.056;8.248;2022-11-20T14:29:54;6.90;99.90
16781;DHT22;8507;50.056;8.248;2022-11-20T14:32:22;6.80;99.90
16781;DHT22;8507;50.056;8.248;2022-11-20T14:34:50;6.80;99.90
16781;DHT22;8507;50.056;8.248;2022-11-20T14:37:24;6.70;99.90
16781;DHT22;8507;50.056;8.248;2022-11-20T14:39:53;6.40;99.90
16781;DHT22;8507;50.056;8.248;2022-11-20T14:42:22;6.40;99.90
16781;DHT22;8507;50.056;8.248;2022-11-20T14:44:49;6.50;99.90
16781;DHT22;8507;50.056;8.248;2022-11-20T14:47:19;6.60;99.90
16781;DHT22;8507;50.056;8.248;2022-11-20T14:49:46;6.70;99.90
16781;DHT22;8507;50.056;8.248;2022-11-20T14:52:23;6.70;99.90
16781;DHT22;8507;50.056;8.248;2022-11-20T14:54:58;6.30;99.90
16781;DHT22;8507;50.056;8.248;2022-11-20T14:57:33;6.10;99.90
16781;DHT22;8507;50.056;8.248;2022-11-20T15:02:45;6.10;99.90
16781;DHT22;8507;50.056;8.248;2022-11-20T15:05:11;6.10;99.90
16781;DHT22;8507;50.056;8.248;2022-11-20T15:07:40;6.10;99.90
16781;DHT22;8507;50.056;8.248;2022-11-20T15:10:25;6.30;99.90
16781;DHT22;8507;50.056;8.248;2022-11-20T15:12:53;6.10;99.90
16781;DHT22;8507;50.056;8.248;2022-11-20T15:15:36;6.10;99.90
16781;DHT22;8507;50.056;8.248;2022-11-20T15:18:04;6.30;99.90
16781;DHT22;8507;50.056;8.248;2022-11-20T15:20:32;6.50;99.90
16781;DHT22;8507;50.056;8.248;2022-11-20T15:22:58;6.60;99.90
16781;DHT22;8507;50.056;8.248;2022-11-20T15:25:24;6.70;99.90
16781;DHT22;8507;50.056;8.248;2022-11-20T15:27:55;6.60;99.90
16781;DHT22;8507;50.056;8.248;2022-11-20T15:30:22;6.50;99.90
16781;DHT22;8507;50.056;8.248;2022-11-20T15:32:48;6.40;99.90
16781;DHT22;8507;50.056;8.248;2022-11-20T15:35:14;6.30;99.90
16781;DHT22;8507;50.056;8.248;2022-11-20T15:37:40;6.40;99.90
16781;DHT22;8507;50.056;8.248;2022-11-20T15:40:07;6.40;99.90
16781;DHT22;8507;50.056;8.248;2022-11-20T15:42:33;6.50;99.90
16781;DHT22;8507;50.056;8.248;2022-11-20T15:44:59;6.60;99.90
16781;DHT22;8507;50.056;8.248;2022-11-20T15:47:33;6.10;99.90
16781;DHT22;8507;50.056;8.248;2022-11-20T15:49:59;6.10;99.90
16781;DHT22;8507;50.056;8.248;2022-11-20T15:52:25;6.00;99.90
16781;DHT22;8507;50.056;8.248;2022-11-20T15:54:51;6.00;99.90
16781;DHT22;8507;50.056;8.248;2022-11-20T15:57:16;5.90;99.90
16781;DHT22;8507;50.056;8.248;2022-11-20T15:59:42;6.00;99.90
16781;DHT22;8507;50.056;8.248;2022-11-20T16:02:11;6.10;99.90
16781;DHT22;8507;50.056;8.248;2022-11-20T16:04:37;6.20;99.90
16781;DHT22;8507;50.056;8.248;2022-11-20T16:07:03;6.00;99.90
16781;DHT22;8507;50.056;8.248;2022-11-20T16:09:29;6.00;99.90
16781;DHT22;8507;50.056;8.248;2022-11-20T16:11:54;5.90;99.90
16781;DHT22;8507;50.056;8.248;2022-11-20T16:14:20;6.00;99.90
16781;DHT22;8507;50.056;8.248;2022-11-20T16:17:04;6.10;99.90
16781;DHT22;8507;50.056;8.248;2022-11-20T16:19:29;6.10;99.90
16781;DHT22;8507;50.056;8.248;2022-11-20T16:21:56;6.10;99.90
16781;DHT22;8507;50.056;8.248;2022-11-20T16:24:22;5.90;99.90
16781;DHT22;8507;50.056;8.248;2022-11-20T16:26:47;5.80;99.90
16781;DHT22;8507;50.056;8.248;2022-11-20T16:29:13;5.70;99.90
16781;DHT22;8507;50.056;8.248;2022-11-20T16:31:39;5.70;99.90
16781;DHT22;8507;50.056;8.248;2022-11-20T16:34:06;5.80;99.90
16781;DHT22;8507;50.056;8.248;2022-11-20T16:36:32;5.70;99.90
16781;DHT22;8507;50.056;8.248;2022-11-20T16:39:00;5.70;99.90
16781;DHT22;8507;50.056;8.248;2022-11-20T16:41:28;5.60;99.90
16781;DHT22;8507;50.056;8.248;2022-11-20T16:43:56;5.60;99.90
16781;DHT22;8507;50.056;8.248;2022-11-20T16:46:27;5.50;99.90
16781;DHT22;8507;50.056;8.248;2022-11-20T16:49:05;5.50;99.90
16781;DHT22;8507;50.056;8.248;2022-11-20T16:51:34;5.70;99.90
16781;DHT22;8507;50.056;8.248;2022-11-20T16:54:04;5.70;99.90
16781;DHT22;8507;50.056;8.248;2022-11-20T16:56:30;5.60;99.90
16781;DHT22;8507;50.056;8.248;2022-11-20T16:58:57;5.70;99.90
16781;DHT22;8507;50.056;8.248;2022-11-20T17:01:25;5.70;99.90
16781;DHT22;8507;50.056;8.248;2022-11-20T17:04:05;5.60;99.90
16781;DHT22;8507;50.056;8.248;2022-11-20T17:06:36;5.70;99.90
16781;DHT22;8507;50.056;8.248;2022-11-20T17:09:02;5.70;99.90
16781;DHT22;8507;50.056;8.248;2022-11-20T17:11:28;5.80;99.90
16781;DHT22;8507;50.056;8.248;2022-11-20T17:13:55;5.80;99.90
16781;DHT22;8507;50.056;8.248;2022-11-20T17:16:23;6.00;99.90
16781;DHT22;8507;50.056;8.248;2022-11-20T17:18:49;6.10;99.90
16781;DHT22;8507;50.056;8.248;2022-11-20T17:21:15;6.20;99.90
16781;DHT22;8507;50.056;8.248;2022-11-20T17:23:43;6.30;99.90
16781;DHT22;8507;50.056;8.248;2022-11-20T17:26:22;6.30;99.90
16781;DHT22;8507;50.056;8.248;2022-11-20T17:31:18;6.40;99.90
16781;DHT22;8507;50.056;8.248;2022-11-20T17:33:45;6.30;99.90
16781;DHT22;8507;50.056;8.248;2022-11-20T17:36:13;6.30;99.90
16781;DHT22;8507;50.056;8.248;2022-11-20T17:38:40;6.40;99.90